sensor_id;sensor_type;location;lat;lon;timestamp;pressure;altitude;pressure_sealevel;temperature;humidity
62952;BME280;52163;52.212;-1.002;2023-02-04T00:01:58;102413.27;;;8.42;87.28
62952;BME280;52163;52.212;-1.002;2023-02-04T00:04:23;102418.71;;;8.44;87.59
62952;BME280;52163;52.212;-1.002;2023-02-04T00:06:49;102417.23;;;8.48;88.04
62952;BME280;52163;52.212;-1.002;2023-02-04T00:09:14;102414.51;;;8.53;87.83
62952;BME280;52163;52.212;-1.002;2023-02-04T00:11:41;102416.02;;;8.56;87.87
62952;BME280;52163;52.212;-1.002;2023-02-04T00:14:06;102416.02;;;8.56;87.93
62952;BME280;52163;52.212;-1.002;2023-02-04T00:16:32;102419.36;;;8.55;87.80
62952;BME280;52163;52.212;-1.002;2023-02-04T00:18:57;102423.22;;;8.57;88.08
62952;BME280;52163;52.212;-1.002;2023-02-04T00:21:23;102430.80;;;8.57;87.94
62952;BME280;52163;52.212;-1.002;2023-02-04T00:23:48;102433.08;;;8.57;88.16
62952;BME280;52163;52.212;-1.002;2023-02-04T00:26:15;102431.65;;;8.57;88.04
62952;BME280;52163;52.212;-1.002;2023-02-04T00:28:41;102432.32;;;8.60;88.54
62952;BME280;52163;52.212;-1.002;2023-02-04T00:31:06;102434.88;;;8.63;88.53
62952;BME280;52163;52.212;-1.002;2023-02-04T00:33:31;102433.80;;;8.64;88.48
62952;BME280;52163;52.212;-1.002;2023-02-04T00:35:57;102435.91;;;8.64;88.82
62952;BME280;52163;52.212;-1.002;2023-02-04T00:38:22;102436.81;;;8.64;88.81
62952;BME280;52163;52.212;-1.002;2023-02-04T00:40:47;102435.79;;;8.62;89.15
62952;BME280;52163;52.212;-1.002;2023-02-04T00:43:13;102437.74;;;8.61;89.26
62952;BME280;52163;52.212;-1.002;2023-02-04T00:45:38;102439.85;;;8.62;89.55
62952;BME280;52163;52.212;-1.002;2023-02-04T00:48:04;102443.14;;;8.65;90.07
62952;BME280;52163;52.212;-1.002;2023-02-04T00:50:30;102444.85;;;8.67;90.13
62952;BME280;52163;52.212;-1.002;2023-02-04T00:52:55;102445.16;;;8.68;90.21
62952;BME280;52163;52.212;-1.002;2023-02-04T00:55:21;102447.32;;;8.66;90.32
62952;BME280;52163;52.212;-1.002;2023-02-04T00:57:46;102451.54;;;8.67;90.61
62952;BME280;52163;52.212;-1.002;2023-02-04T01:00:13;102448.02;;;8.66;90.33
62952;BME280;52163;52.212;-1.002;2023-02-04T01:02:39;102449.47;;;8.65;90.52
62952;BME280;52163;52.212;-1.002;2023-02-04T01:05:08;102449.67;;;8.64;90.70
62952;BME280;52163;52.212;-1.002;2023-02-04T01:07:35;102450.54;;;8.64;91.00
62952;BME280;52163;52.212;-1.002;2023-02-04T01:10:00;102452.25;;;8.67;91.32
62952;BME280;52163;52.212;-1.002;2023-02-04T01:12:26;102451.31;;;8.69;91.37
62952;BME280;52163;52.212;-1.002;2023-02-04T01:14:54;102450.42;;;8.70;91.37
62952;BME280;52163;52.212;-1.002;2023-02-04T01:17:20;102453.91;;;8.72;91.41
62952;BME280;52163;52.212;-1.002;2023-02-04T01:19:46;102454.78;;;8.72;91.39
62952;BME280;52163;52.212;-1.002;2023-02-04T01:22:12;102452.52;;;8.71;91.23
62952;BME280;52163;52.212;-1.002;2023-02-04T01:24:37;102456.94;;;8.70;91.12
62952;BME280;52163;52.212;-1.002;2023-02-04T01:27:03;102456.77;;;8.70;91.33
62952;BME280;52163;52.212;-1.002;2023-02-04T01:29:28;102459.23;;;8.70;91.39
62952;BME280;52163;52.212;-1.002;2023-02-04T01:31:53;102464.67;;;8.71;91.60
62952;BME280;52163;52.212;-1.002;2023-02-04T01:34:19;102464.85;;;8.71;91.55
62952;BME280;52163;52.212;-1.002;2023-02-04T01:36:44;102465.17;;;8.72;91.66
62952;BME280;52163;52.212;-1.002;2023-02-04T01:39:10;102469.81;;;8.69;91.48
62952;BME280;52163;52.212;-1.002;2023-02-04T01:41:35;102470.21;;;8.68;91.70
62952;BME280;52163;52.212;-1.002;2023-02-04T01:44:01;102468.45;;;8.67;91.51
62952;BME280;52163;52.212;-1.002;2023-02-04T01:46:26;102472.66;;;8.68;91.99
62952;BME280;52163;52.212;-1.002;2023-02-04T01:48:52;102471.93;;;8.69;91.87
62952;BME280;52163;52.212;-1.002;2023-02-04T01:51:24;102474.05;;;8.70;92.08
62952;BME280;52163;52.212;-1.002;2023-02-04T01:53:52;102473.86;;;8.70;92.26
62952;BME280;52163;52.212;-1.002;2023-02-04T01:56:22;102472.29;;;8.69;92.16
62952;BME280;52163;52.212;-1.002;2023-02-04T01:58:48;102478.70;;;8.65;91.96
62952;BME280;52163;52.212;-1.002;2023-02-04T02:01:33;102481.95;;;8.62;92.33
62952;BME280;52163;52.212;-1.002;2023-02-04T02:03:59;102490.05;;;8.62;92.36
62952;BME280;52163;52.212;-1.002;2023-02-04T02:06:25;102490.63;;;8.60;92.16
62952;BME280;52163;52.212;-1.002;2023-02-04T02:08:51;102482.19;;;8.59;92.49
62952;BME280;52163;52.212;-1.002;2023-02-04T02:11:16;102483.00;;;8.62;92.77
62952;BME280;52163;52.212;-1.002;2023-02-04T02:13:42;102478.01;;;8.65;93.31
62952;BME280;52163;52.212;-1.002;2023-02-04T02:16:07;102470.55;;;8.68;93.02
62952;BME280;52163;52.212;-1.002;2023-02-04T02:18:34;102467.40;;;8.67;92.86
62952;BME280;52163;52.212;-1.002;2023-02-04T02:21:04;102467.05;;;8.66;92.57
62952;BME280;52163;52.212;-1.002;2023-02-04T02:23:47;102466.06;;;8.63;92.49
62952;BME280;52163;52.212;-1.002;2023-02-04T02:26:14;102469.44;;;8.62;92.92
62952;BME280;52163;52.212;-1.002;2023-02-04T02:28:40;102469.45;;;8.62;93.02
62952;BME280;52163;52.212;-1.002;2023-02-04T02:31:06;102464.46;;;8.64;92.98
62952;BME280;52163;52.212;-1.002;2023-02-04T02:33:33;102464.57;;;8.67;93.20
62952;BME280;52163;52.212;-1.002;2023-02-04T02:35:59;102465.77;;;8.70;93.00
62952;BME280;52163;52.212;-1.002;2023-02-04T02:38:25;102465.90;;;8.71;93.16
62952;BME280;52163;52.212;-1.002;2023-02-04T02:40:51;102463.67;;;8.69;92.69
62952;BME280;52163;52.212;-1.002;2023-02-04T02:43:19;102459.33;;;8.65;92.53
62952;BME280;52163;52.212;-1.002;2023-02-04T02:45:45;102455.48;;;8.63;92.82
62952;BME280;52163;52.212;-1.002;2023-02-04T02:48:11;102464.66;;;8.63;92.79
62952;BME280;52163;52.212;-1.002;2023-02-04T02:50:37;102466.31;;;8.60;93.11
62952;BME280;52163;52.212;-1.002;2023-02-04T02:53:09;102458.39;;;8.60;93.05
62952;BME280;52163;52.212;-1.002;2023-02-04T02:55:35;102458.32;;;8.63;93.55
62952;BME280;52163;52.212;-1.002;2023-02-04T02:58:00;102453.52;;;8.65;92.97
62952;BME280;52163;52.212;-1.002;2023-02-04T03:00:28;102453.23;;;8.62;93.06
62952;BME280;52163;52.212;-1.002;2023-02-04T03:05:19;102460.02;;;8.58;92.83
62952;BME280;52163;52.212;-1.002;2023-02-04T03:07:45;102457.53;;;8.59;93.34
62952;BME280;52163;52.212;-1.002;2023-02-04T03:10:10;102459.11;;;8.59;93.17
62952;BME280;52163;52.212;-1.002;2023-02-04T03:12:36;102459.60;;;8.61;93.37
62952;BME280;52163;52.212;-1.002;2023-02-04T03:15:03;102453.02;;;8.64;93.54
62952;BME280;52163;52.212;-1.002;2023-02-04T03:17:28;102449.64;;;8.65;93.29
62952;BME280;52163;52.212;-1.002;2023-02-04T03:19:55;102451.06;;;8.65;93.09
62952;BME280;52163;52.212;-1.002;2023-02-04T03:22:20;102454.43;;;8.64;93.05
62952;BME280;52163;52.212;-1.002;2023-02-04T03:24:46;102459.40;;;8.62;92.69
62952;BME280;52163;52.212;-1.002;2023-02-04T03:27:13;102452.04;;;8.60;93.08
62952;BME280;52163;52.212;-1.002;2023-02-04T03:29:43;102452.88;;;8.62;93.11
62952;BME280;52163;52.212;-1.002;2023-02-04T03:32:10;102453.03;;;8.63;93.47
62952;BME280;52163;52.212;-1.002;2023-02-04T03:34:35;102454.46;;;8.63;93.13
62952;BME280;52163;52.212;-1.002;2023-02-04T03:37:00;102456.78;;;8.61;92.92
62952;BME280;52163;52.212;-1.002;2023-02-04T03:39:26;102456.84;;;8.58;93.00
62952;BME280;52163;52.212;-1.002;2023-02-04T03:41:51;102448.63;;;8.55;92.96
62952;BME280;52163;52.212;-1.002;2023-02-04T03:44:17;102448.34;;;8.52;93.31
62952;BME280;52163;52.212;-1.002;2023-02-04T03:46:42;102437.95;;;8.52;93.91
62952;BME280;52163;52.212;-1.002;2023-02-04T03:49:08;102436.66;;;8.54;93.78
62952;BME280;52163;52.212;-1.002;2023-02-04T03:51:33;102438.38;;;8.56;93.76
62952;BME280;52163;52.212;-1.002;2023-02-04T03:53:59;102438.55;;;8.56;93.90
62952;BME280;52163;52.212;-1.002;2023-02-04T03:56:24;102444.73;;;8.56;93.85
62952;BME280;52163;52.212;-1.002;2023-02-04T03:58:50;102445.46;;;8.55;93.77
62952;BME280;52163;52.212;-1.002;2023-02-04T04:01:15;102443.71;;;8.54;93.55
62952;BME280;52163;52.212;-1.002;2023-02-04T04:03:40;102442.33;;;8.53;94.06
62952;BME280;52163;52.212;-1.002;2023-02-04T04:06:06;102441.05;;;8.55;94.13
62952;BME280;52163;52.212;-1.002;2023-02-04T04:08:34;102440.84;;;8.57;93.99
62952;BME280;52163;52.212;-1.002;2023-02-04T04:11:00;102445.65;;;8.54;93.95
62952;BME280;52163;52.212;-1.002;2023-02-04T04:13:25;102447.80;;;8.52;94.04
62952;BME280;52163;52.212;-1.002;2023-02-04T04:15:50;102452.08;;;8.50;94.21
62952;BME280;52163;52.212;-1.002;2023-02-04T04:18:16;102451.02;;;8.49;94.38
62952;BME280;52163;52.212;-1.002;2023-02-04T04:20:41;102451.55;;;8.48;94.83
62952;BME280;52163;52.212;-1.002;2023-02-04T04:23:07;102455.62;;;8.48;94.56
62952;BME280;52163;52.212;-1.002;2023-02-04T04:25:32;102456.86;;;8.48;94.62
62952;BME280;52163;52.212;-1.002;2023-02-04T04:27:57;102460.55;;;8.48;94.68
62952;BME280;52163;52.212;-1.002;2023-02-04T04:30:23;102463.02;;;8.49;94.87
62952;BME280;52163;52.212;-1.002;2023-02-04T04:32:48;102463.19;;;8.49;94.65
62952;BME280;52163;52.212;-1.002;2023-02-04T04:35:13;102467.95;;;8.49;94.90
62952;BME280;52163;52.212;-1.002;2023-02-04T04:37:39;102470.77;;;8.47;95.01
62952;BME280;52163;52.212;-1.002;2023-02-04T04:40:05;102468.17;;;8.45;94.87
62952;BME280;52163;52.212;-1.002;2023-02-04T04:42:30;102471.54;;;8.43;95.12
62952;BME280;52163;52.212;-1.002;2023-02-04T04:44:56;102473.45;;;8.46;95.35
62952;BME280;52163;52.212;-1.002;2023-02-04T04:47:21;102475.38;;;8.46;95.22
62952;BME280;52163;52.212;-1.002;2023-02-04T04:49:47;102477.15;;;8.46;95.20
62952;BME280;52163;52.212;-1.002;2023-02-04T04:52:12;102476.10;;;8.45;95.37
62952;BME280;52163;52.212;-1.002;2023-02-04T04:54:38;102476.16;;;8.41;95.34
62952;BME280;52163;52.212;-1.002;2023-02-04T04:57:03;102479.57;;;8.37;95.26
62952;BME280;52163;52.212;-1.002;2023-02-04T04:59:28;102484.55;;;8.36;95.42
62952;BME280;52163;52.212;-1.002;2023-02-04T05:01:54;102484.59;;;8.34;95.67
62952;BME280;52163;52.212;-1.002;2023-02-04T05:04:19;102487.45;;;8.31;95.73
62952;BME280;52163;52.212;-1.002;2023-02-04T05:06:44;102490.59;;;8.33;96.20
62952;BME280;52163;52.212;-1.002;2023-02-04T05:09:10;102491.63;;;8.34;96.28
62952;BME280;52163;52.212;-1.002;2023-02-04T05:11:35;102484.61;;;8.32;95.97
62952;BME280;52163;52.212;-1.002;2023-02-04T05:14:01;102489.01;;;8.33;96.53
62952;BME280;52163;52.212;-1.002;2023-02-04T05:16:26;102489.02;;;8.32;96.10
62952;BME280;52163;52.212;-1.002;2023-02-04T05:18:51;102485.00;;;8.31;96.39
62952;BME280;52163;52.212;-1.002;2023-02-04T05:21:17;102488.73;;;8.29;96.36
62952;BME280;52163;52.212;-1.002;2023-02-04T05:23:42;102489.41;;;8.30;96.67
62952;BME280;52163;52.212;-1.002;2023-02-04T05:26:08;102492.35;;;8.33;96.96
62952;BME280;52163;52.212;-1.002;2023-02-04T05:28:33;102495.91;;;8.31;96.42
62952;BME280;52163;52.212;-1.002;2023-02-04T05:30:58;102498.11;;;8.26;96.70
62952;BME280;52163;52.212;-1.002;2023-02-04T05:33:24;102502.56;;;8.24;96.78
62952;BME280;52163;52.212;-1.002;2023-02-04T05:35:49;102500.86;;;8.21;96.42
62952;BME280;52163;52.212;-1.002;2023-02-04T05:38:15;102502.30;;;8.19;96.98
62952;BME280;52163;52.212;-1.002;2023-02-04T05:40:40;102500.36;;;8.19;96.77
62952;BME280;52163;52.212;-1.002;2023-02-04T05:43:05;102501.95;;;8.19;96.83
62952;BME280;52163;52.212;-1.002;2023-02-04T05:45:31;102504.41;;;8.19;96.74
62952;BME280;52163;52.212;-1.002;2023-02-04T05:47:56;102509.31;;;8.21;97.15
62952;BME280;52163;52.212;-1.002;2023-02-04T05:50:22;102514.23;;;8.21;96.71
62952;BME280;52163;52.212;-1.002;2023-02-04T05:52:47;102514.79;;;8.20;96.52
62952;BME280;52163;52.212;-1.002;2023-02-04T05:55:13;102515.39;;;8.15;96.13
62952;BME280;52163;52.212;-1.002;2023-02-04T05:57:38;102515.81;;;8.11;96.46
62952;BME280;52163;52.212;-1.002;2023-02-04T06:00:05;102518.13;;;8.10;96.57
62952;BME280;52163;52.212;-1.002;2023-02-04T06:02:30;102519.23;;;8.08;96.38
62952;BME280;52163;52.212;-1.002;2023-02-04T06:04:55;102520.11;;;8.08;96.82
62952;BME280;52163;52.212;-1.002;2023-02-04T06:07:21;102516.80;;;8.06;96.41
62952;BME280;52163;52.212;-1.002;2023-02-04T06:09:46;102515.44;;;8.04;96.60
62952;BME280;52163;52.212;-1.002;2023-02-04T06:12:12;102513.31;;;8.04;96.71
62952;BME280;52163;52.212;-1.002;2023-02-04T06:14:37;102509.98;;;8.03;96.50
62952;BME280;52163;52.212;-1.002;2023-02-04T06:17:02;102511.05;;;8.03;96.63
62952;BME280;52163;52.212;-1.002;2023-02-04T06:19:28;102511.62;;;8.00;96.37
62952;BME280;52163;52.212;-1.002;2023-02-04T06:21:53;102510.02;;;8.02;96.69
62952;BME280;52163;52.212;-1.002;2023-02-04T06:24:19;102509.48;;;8.02;96.56
62952;BME280;52163;52.212;-1.002;2023-02-04T06:26:44;102510.89;;;8.02;96.30
62952;BME280;52163;52.212;-1.002;2023-02-04T06:29:09;102518.80;;;8.02;96.14
62952;BME280;52163;52.212;-1.002;2023-02-04T06:31:35;102518.14;;;7.99;96.18
62952;BME280;52163;52.212;-1.002;2023-02-04T06:34:02;102519.19;;;8.01;96.03
62952;BME280;52163;52.212;-1.002;2023-02-04T06:36:28;102517.64;;;7.98;95.64
62952;BME280;52163;52.212;-1.002;2023-02-04T06:38:53;102517.51;;;7.95;95.39
62952;BME280;52163;52.212;-1.002;2023-02-04T06:41:19;102518.58;;;7.94;95.28
62952;BME280;52163;52.212;-1.002;2023-02-04T06:43:44;102518.39;;;7.94;95.35
62952;BME280;52163;52.212;-1.002;2023-02-04T06:46:09;102518.77;;;7.94;95.20
62952;BME280;52163;52.212;-1.002;2023-02-04T06:48:35;102518.04;;;7.95;95.22
62952;BME280;52163;52.212;-1.002;2023-02-04T06:51:00;102522.45;;;7.94;95.09
62952;BME280;52163;52.212;-1.002;2023-02-04T06:53:25;102524.57;;;7.94;94.96
62952;BME280;52163;52.212;-1.002;2023-02-04T06:55:51;102526.00;;;7.92;94.80
62952;BME280;52163;52.212;-1.002;2023-02-04T06:58:17;102521.27;;;7.91;94.46
62952;BME280;52163;52.212;-1.002;2023-02-04T07:00:42;102526.63;;;7.86;94.10
62952;BME280;52163;52.212;-1.002;2023-02-04T07:03:08;102529.48;;;7.84;94.28
62952;BME280;52163;52.212;-1.002;2023-02-04T07:05:34;102533.89;;;7.84;94.12
62952;BME280;52163;52.212;-1.002;2023-02-04T07:07:59;102530.38;;;7.83;94.14
62952;BME280;52163;52.212;-1.002;2023-02-04T07:10:25;102532.67;;;7.83;94.02
62952;BME280;52163;52.212;-1.002;2023-02-04T07:12:50;102529.55;;;7.81;93.91
62952;BME280;52163;52.212;-1.002;2023-02-04T07:15:15;102531.36;;;7.78;93.92
62952;BME280;52163;52.212;-1.002;2023-02-04T07:17:42;102530.52;;;7.76;94.05
62952;BME280;52163;52.212;-1.002;2023-02-04T07:20:08;102530.88;;;7.76;93.95
62952;BME280;52163;52.212;-1.002;2023-02-04T07:22:34;102531.90;;;7.77;94.02
62952;BME280;52163;52.212;-1.002;2023-02-04T07:24:59;102532.09;;;7.76;93.96
62952;BME280;52163;52.212;-1.002;2023-02-04T07:27:25;102534.71;;;7.77;93.86
62952;BME280;52163;52.212;-1.002;2023-02-04T07:29:50;102537.87;;;7.77;93.83
62952;BME280;52163;52.212;-1.002;2023-02-04T07:32:15;102540.33;;;7.78;93.60
62952;BME280;52163;52.212;-1.002;2023-02-04T07:34:41;102547.19;;;7.78;93.53
62952;BME280;52163;52.212;-1.002;2023-02-04T07:37:06;102547.89;;;7.79;93.02
62952;BME280;52163;52.212;-1.002;2023-02-04T07:39:31;102548.41;;;7.78;93.13
62952;BME280;52163;52.212;-1.002;2023-02-04T07:41:57;102551.21;;;7.79;93.02
62952;BME280;52163;52.212;-1.002;2023-02-04T07:44:22;102547.86;;;7.79;92.95
62952;BME280;52163;52.212;-1.002;2023-02-04T07:46:48;102549.29;;;7.79;92.73
62952;BME280;52163;52.212;-1.002;2023-02-04T07:49:13;102549.98;;;7.78;92.63
62952;BME280;52163;52.212;-1.002;2023-02-04T07:51:38;102555.63;;;7.78;92.62
62952;BME280;52163;52.212;-1.002;2023-02-04T07:54:04;102558.10;;;7.77;92.61
62952;BME280;52163;52.212;-1.002;2023-02-04T07:56:29;102564.44;;;7.77;92.66
62952;BME280;52163;52.212;-1.002;2023-02-04T07:58:54;102573.75;;;7.78;92.54
62952;BME280;52163;52.212;-1.002;2023-02-04T08:01:20;102578.13;;;7.79;92.44
62952;BME280;52163;52.212;-1.002;2023-02-04T08:03:45;102583.39;;;7.80;92.48
62952;BME280;52163;52.212;-1.002;2023-02-04T08:06:11;102589.88;;;7.81;92.49
62952;BME280;52163;52.212;-1.002;2023-02-04T08:08:36;102589.34;;;7.82;92.53
62952;BME280;52163;52.212;-1.002;2023-02-04T08:11:04;102588.27;;;7.83;92.28
62952;BME280;52163;52.212;-1.002;2023-02-04T08:13:30;102586.68;;;7.84;92.28
62952;BME280;52163;52.212;-1.002;2023-02-04T08:15:55;102582.42;;;7.85;92.28
62952;BME280;52163;52.212;-1.002;2023-02-04T08:18:20;102583.25;;;7.89;92.21
62952;BME280;52163;52.212;-1.002;2023-02-04T08:20:46;102584.23;;;7.93;92.49
62952;BME280;52163;52.212;-1.002;2023-02-04T08:23:11;102589.30;;;7.96;91.80
62952;BME280;52163;52.212;-1.002;2023-02-04T08:25:37;102588.71;;;8.00;91.88
62952;BME280;52163;52.212;-1.002;2023-02-04T08:28:02;102595.54;;;8.02;91.55
62952;BME280;52163;52.212;-1.002;2023-02-04T08:30:29;102598.16;;;8.03;91.27
62952;BME280;52163;52.212;-1.002;2023-02-04T08:32:54;102600.61;;;8.04;91.19
62952;BME280;52163;52.212;-1.002;2023-02-04T08:35:19;102603.72;;;8.08;91.09
62952;BME280;52163;52.212;-1.002;2023-02-04T08:37:45;102605.79;;;8.10;90.68
62952;BME280;52163;52.212;-1.002;2023-02-04T08:40:11;102608.20;;;8.13;90.83
62952;BME280;52163;52.212;-1.002;2023-02-04T08:42:36;102610.11;;;8.15;90.34
62952;BME280;52163;52.212;-1.002;2023-02-04T08:45:02;102614.17;;;8.14;90.22
62952;BME280;52163;52.212;-1.002;2023-02-04T08:47:28;102619.27;;;8.14;90.18
62952;BME280;52163;52.212;-1.002;2023-02-04T08:49:53;102623.12;;;8.16;89.87
62952;BME280;52163;52.212;-1.002;2023-02-04T08:52:19;102622.01;;;8.20;89.70
62952;BME280;52163;52.212;-1.002;2023-02-04T08:54:44;102623.48;;;8.27;89.49
62952;BME280;52163;52.212;-1.002;2023-02-04T08:57:09;102628.79;;;8.34;89.26
62952;BME280;52163;52.212;-1.002;2023-02-04T08:59:35;102632.17;;;8.43;88.94
62952;BME280;52163;52.212;-1.002;2023-02-04T09:02:00;102639.11;;;8.51;88.48
62952;BME280;52163;52.212;-1.002;2023-02-04T09:04:27;102641.10;;;8.58;88.48
62952;BME280;52163;52.212;-1.002;2023-02-04T09:06:53;102643.63;;;8.64;88.19
62952;BME280;52163;52.212;-1.002;2023-02-04T09:09:19;102641.77;;;8.71;87.38
62952;BME280;52163;52.212;-1.002;2023-02-04T09:11:44;102645.70;;;8.77;86.81
62952;BME280;52163;52.212;-1.002;2023-02-04T09:14:10;102647.17;;;8.83;86.45
62952;BME280;52163;52.212;-1.002;2023-02-04T09:16:35;102649.34;;;8.89;86.34
62952;BME280;52163;52.212;-1.002;2023-02-04T09:19:01;102652.21;;;8.96;86.06
62952;BME280;52163;52.212;-1.002;2023-02-04T09:21:27;102649.98;;;9.03;85.71
62952;BME280;52163;52.212;-1.002;2023-02-04T09:23:53;102650.55;;;9.08;85.35
62952;BME280;52163;52.212;-1.002;2023-02-04T09:26:19;102652.21;;;9.14;84.78
62952;BME280;52163;52.212;-1.002;2023-02-04T09:28:44;102654.80;;;9.17;84.51
62952;BME280;52163;52.212;-1.002;2023-02-04T09:31:11;102654.73;;;9.20;84.14
62952;BME280;52163;52.212;-1.002;2023-02-04T09:33:38;102655.89;;;9.23;84.02
62952;BME280;52163;52.212;-1.002;2023-02-04T09:36:05;102658.61;;;9.28;83.52
62952;BME280;52163;52.212;-1.002;2023-02-04T09:38:31;102655.91;;;9.31;83.44
62952;BME280;52163;52.212;-1.002;2023-02-04T09:40:59;102650.39;;;9.34;83.09
62952;BME280;52163;52.212;-1.002;2023-02-04T09:43:37;102655.79;;;9.37;82.64
62952;BME280;52163;52.212;-1.002;2023-02-04T09:46:04;102658.54;;;9.40;82.57
62952;BME280;52163;52.212;-1.002;2023-02-04T09:48:29;102658.78;;;9.46;82.20
62952;BME280;52163;52.212;-1.002;2023-02-04T09:51:04;102658.31;;;9.51;82.02
62952;BME280;52163;52.212;-1.002;2023-02-04T09:53:30;102660.34;;;9.55;82.06
62952;BME280;52163;52.212;-1.002;2023-02-04T09:55:56;102664.13;;;9.59;81.33
62952;BME280;52163;52.212;-1.002;2023-02-04T09:58:22;102661.27;;;9.61;81.32
62952;BME280;52163;52.212;-1.002;2023-02-04T10:01:16;102662.78;;;9.64;80.88
62952;BME280;52163;52.212;-1.002;2023-02-04T10:03:43;102660.27;;;9.67;80.56
62952;BME280;52163;52.212;-1.002;2023-02-04T10:06:13;102656.73;;;9.67;80.17
62952;BME280;52163;52.212;-1.002;2023-02-04T10:08:39;102652.12;;;9.68;79.98
62952;BME280;52163;52.212;-1.002;2023-02-04T10:11:06;102648.33;;;9.72;80.07
62952;BME280;52163;52.212;-1.002;2023-02-04T10:13:41;102646.77;;;9.78;80.08
62952;BME280;52163;52.212;-1.002;2023-02-04T10:16:40;102643.84;;;9.82;79.73
62952;BME280;52163;52.212;-1.002;2023-02-04T10:19:13;102646.83;;;9.91;79.72
62952;BME280;52163;52.212;-1.002;2023-02-04T10:21:40;102647.10;;;9.95;79.11
62952;BME280;52163;52.212;-1.002;2023-02-04T10:24:14;102649.19;;;9.96;78.61
62952;BME280;52163;52.212;-1.002;2023-02-04T10:26:40;102654.98;;;9.97;78.21
62952;BME280;52163;52.212;-1.002;2023-02-04T10:29:11;102655.81;;;9.99;78.07
62952;BME280;52163;52.212;-1.002;2023-02-04T10:31:42;102660.38;;;10.00;78.09
62952;BME280;52163;52.212;-1.002;2023-02-04T10:36:47;102663.33;;;10.10;77.37
62952;BME280;52163;52.212;-1.002;2023-02-04T10:39:40;102661.56;;;10.10;76.80
62952;BME280;52163;52.212;-1.002;2023-02-04T10:42:06;102662.54;;;10.06;76.54
62952;BME280;52163;52.212;-1.002;2023-02-04T10:44:33;102667.88;;;10.05;76.28
62952;BME280;52163;52.212;-1.002;2023-02-04T10:47:15;102668.52;;;10.07;76.50
62952;BME280;52163;52.212;-1.002;2023-02-04T10:50:36;102667.81;;;10.07;76.25
62952;BME280;52163;52.212;-1.002;2023-02-04T10:52:41;102666.98;;;10.05;75.89
62952;BME280;52163;52.212;-1.002;2023-02-04T10:55:13;102666.11;;;10.05;75.76
62952;BME280;52163;52.212;-1.002;2023-02-04T10:57:40;102670.98;;;10.07;75.29
62952;BME280;52163;52.212;-1.002;2023-02-04T11:00:23;102670.64;;;10.07;75.32
62952;BME280;52163;52.212;-1.002;2023-02-04T11:03:02;102671.72;;;10.06;74.90
62952;BME280;52163;52.212;-1.002;2023-02-04T11:05:31;102673.48;;;10.06;74.91
62952;BME280;52163;52.212;-1.002;2023-02-04T11:07:57;102674.67;;;10.08;74.80
62952;BME280;52163;52.212;-1.002;2023-02-04T11:10:26;102672.73;;;10.08;74.57
62952;BME280;52163;52.212;-1.002;2023-02-04T11:18:05;102680.43;;;10.04;74.48
62952;BME280;52163;52.212;-1.002;2023-02-04T11:20:33;102681.00;;;10.01;73.66
62952;BME280;52163;52.212;-1.002;2023-02-04T11:26:04;102685.38;;;9.95;73.74
62952;BME280;52163;52.212;-1.002;2023-02-04T11:34:01;102689.42;;;10.12;73.53
62952;BME280;52163;52.212;-1.002;2023-02-04T11:36:27;102692.13;;;10.17;72.91
62952;BME280;52163;52.212;-1.002;2023-02-04T11:38:52;102693.06;;;10.22;72.44
62952;BME280;52163;52.212;-1.002;2023-02-04T11:41:28;102691.86;;;10.28;72.50
62952;BME280;52163;52.212;-1.002;2023-02-04T11:43:56;102689.97;;;10.33;72.14
62952;BME280;52163;52.212;-1.002;2023-02-04T11:46:22;102694.09;;;10.39;71.88
62952;BME280;52163;52.212;-1.002;2023-02-04T11:48:57;102695.21;;;10.44;71.35
62952;BME280;52163;52.212;-1.002;2023-02-04T11:51:31;102693.06;;;10.45;70.61
62952;BME280;52163;52.212;-1.002;2023-02-04T11:53:57;102690.44;;;10.44;70.20
62952;BME280;52163;52.212;-1.002;2023-02-04T11:56:23;102686.64;;;10.41;69.22
62952;BME280;52163;52.212;-1.002;2023-02-04T11:58:55;102683.65;;;10.39;68.80
62952;BME280;52163;52.212;-1.002;2023-02-04T12:01:30;102681.89;;;10.39;68.51
62952;BME280;52163;52.212;-1.002;2023-02-04T12:04:00;102681.35;;;10.40;68.52
62952;BME280;52163;52.212;-1.002;2023-02-04T12:06:36;102681.00;;;10.40;68.15
62952;BME280;52163;52.212;-1.002;2023-02-04T12:09:22;102681.23;;;10.36;68.19
62952;BME280;52163;52.212;-1.002;2023-02-04T12:11:58;102682.39;;;10.32;67.66
62952;BME280;52163;52.212;-1.002;2023-02-04T12:14:32;102681.42;;;10.28;67.73
62952;BME280;52163;52.212;-1.002;2023-02-04T12:16:59;102682.71;;;10.27;67.83
62952;BME280;52163;52.212;-1.002;2023-02-04T12:19:25;102684.77;;;10.22;67.68
62952;BME280;52163;52.212;-1.002;2023-02-04T12:21:51;102686.91;;;10.21;67.87
62952;BME280;52163;52.212;-1.002;2023-02-04T12:24:17;102692.88;;;10.22;68.14
62952;BME280;52163;52.212;-1.002;2023-02-04T12:26:42;102691.20;;;10.26;68.08
62952;BME280;52163;52.212;-1.002;2023-02-04T12:29:08;102692.06;;;10.27;67.85
62952;BME280;52163;52.212;-1.002;2023-02-04T12:31:33;102687.49;;;10.26;67.91
62952;BME280;52163;52.212;-1.002;2023-02-04T12:34:00;102689.74;;;10.28;67.93
62952;BME280;52163;52.212;-1.002;2023-02-04T12:36:25;102692.84;;;10.31;67.50
62952;BME280;52163;52.212;-1.002;2023-02-04T12:38:52;102691.38;;;10.33;67.62
62952;BME280;52163;52.212;-1.002;2023-02-04T12:41:18;102689.35;;;10.37;67.88
62952;BME280;52163;52.212;-1.002;2023-02-04T12:43:44;102686.09;;;10.41;67.72
62952;BME280;52163;52.212;-1.002;2023-02-04T12:46:10;102679.66;;;10.44;67.86
62952;BME280;52163;52.212;-1.002;2023-02-04T12:48:35;102672.98;;;10.50;67.96
62952;BME280;52163;52.212;-1.002;2023-02-04T12:51:05;102669.48;;;10.55;67.97
62952;BME280;52163;52.212;-1.002;2023-02-04T12:53:31;102667.60;;;10.60;67.83
62952;BME280;52163;52.212;-1.002;2023-02-04T12:55:57;102669.80;;;10.63;68.20
62952;BME280;52163;52.212;-1.002;2023-02-04T12:58:22;102674.29;;;10.68;68.37
62952;BME280;52163;52.212;-1.002;2023-02-04T13:00:47;102670.80;;;10.72;68.27
62952;BME280;52163;52.212;-1.002;2023-02-04T13:03:13;102671.00;;;10.78;68.12
62952;BME280;52163;52.212;-1.002;2023-02-04T13:05:38;102677.84;;;10.87;68.18